sensor_id;sensor_type;location;lat;lon;timestamp;pressure;altitude;pressure_sealevel;temperature;humidity
28510;BME280;15723;55.684;37.928;2022-10-18T00:02:04;100705.00;;;9.22;77.46
28510;BME280;15723;55.684;37.928;2022-10-18T00:04:30;100704.34;;;9.17;77.62
28510;BME280;15723;55.684;37.928;2022-10-18T00:06:57;100704.19;;;9.20;77.42
28510;BME280;15723;55.684;37.928;2022-10-18T00:09:23;100695.84;;;9.24;77.42
28510;BME280;15723;55.684;37.928;2022-10-18T00:11:49;100692.91;;;9.10;78.14
28510;BME280;15723;55.684;37.928;2022-10-18T00:14:16;100692.41;;;9.21;77.78
28510;BME280;15723;55.684;37.928;2022-10-18T00:16:42;100686.03;;;9.22;77.63
28510;BME280;15723;55.684;37.928;2022-10-18T00:19:09;100669.78;;;9.22;77.66
28510;BME280;15723;55.684;37.928;2022-10-18T00:21:35;100669.56;;;9.26;77.63
28510;BME280;15723;55.684;37.928;2022-10-18T00:24:01;100664.84;;;9.31;77.56
28510;BME280;15723;55.684;37.928;2022-10-18T00:26:29;100670.78;;;9.39;76.97
28510;BME280;15723;55.684;37.928;2022-10-18T00:29:00;100669.97;;;9.37;77.19
28510;BME280;15723;55.684;37.928;2022-10-18T00:31:29;100670.41;;;9.47;76.93
28510;BME280;15723;55.684;37.928;2022-10-18T00:34:00;100664.84;;;9.31;77.46
28510;BME280;15723;55.684;37.928;2022-10-18T00:36:28;100643.56;;;9.22;77.58
28510;BME280;15723;55.684;37.928;2022-10-18T00:38:55;100647.13;;;9.43;76.83
28510;BME280;15723;55.684;37.928;2022-10-18T00:41:25;100641.09;;;9.55;76.53
28510;BME280;15723;55.684;37.928;2022-10-18T00:44:00;100646.16;;;9.44;76.50
28510;BME280;15723;55.684;37.928;2022-10-18T00:46:32;100645.13;;;9.47;76.56
28510;BME280;15723;55.684;37.928;2022-10-18T00:49:03;100638.69;;;9.68;76.04
28510;BME280;15723;55.684;37.928;2022-10-18T00:51:35;100628.25;;;9.59;76.33
28510;BME280;15723;55.684;37.928;2022-10-18T00:54:02;100630.16;;;9.57;76.60
28510;BME280;15723;55.684;37.928;2022-10-18T00:56:29;100619.78;;;9.66;75.90
28510;BME280;15723;55.684;37.928;2022-10-18T00:58:57;100627.97;;;9.65;75.79
28510;BME280;15723;55.684;37.928;2022-10-18T01:01:23;100617.63;;;9.73;75.25
28510;BME280;15723;55.684;37.928;2022-10-18T01:03:50;100606.66;;;9.57;75.46
28510;BME280;15723;55.684;37.928;2022-10-18T01:06:17;100613.63;;;9.25;76.38
28510;BME280;15723;55.684;37.928;2022-10-18T01:14:41;100601.19;;;9.21;75.94
28510;BME280;15723;55.684;37.928;2022-10-18T01:20:25;100615.59;;;9.22;75.96
28510;BME280;15723;55.684;37.928;2022-10-18T01:22:57;100618.69;;;9.14;76.18
28510;BME280;15723;55.684;37.928;2022-10-18T01:25:39;100621.69;;;9.08;76.97
28510;BME280;15723;55.684;37.928;2022-10-18T01:31:15;100614.38;;;9.10;76.22
28510;BME280;15723;55.684;37.928;2022-10-18T01:33:47;100622.56;;;9.08;76.55
28510;BME280;15723;55.684;37.928;2022-10-18T01:38:50;100616.06;;;8.94;76.60
28510;BME280;15723;55.684;37.928;2022-10-18T01:41:19;100609.06;;;8.88;76.61
28510;BME280;15723;55.684;37.928;2022-10-18T01:43:49;100600.75;;;8.93;76.81
28510;BME280;15723;55.684;37.928;2022-10-18T01:46:21;100601.13;;;9.04;76.26
28510;BME280;15723;55.684;37.928;2022-10-18T01:48:50;100593.44;;;8.95;76.68
28510;BME280;15723;55.684;37.928;2022-10-18T01:51:19;100594.88;;;8.83;77.12
28510;BME280;15723;55.684;37.928;2022-10-18T01:53:47;100584.94;;;9.02;76.33
28510;BME280;15723;55.684;37.928;2022-10-18T01:56:30;100588.09;;;9.12;76.24
28510;BME280;15723;55.684;37.928;2022-10-18T02:10:27;100577.25;;;9.12;75.84
28510;BME280;15723;55.684;37.928;2022-10-18T02:12:57;100572.19;;;9.23;75.89
28510;BME280;15723;55.684;37.928;2022-10-18T02:15:38;100568.31;;;9.29;75.42
28510;BME280;15723;55.684;37.928;2022-10-18T02:18:10;100565.03;;;9.22;75.64
28510;BME280;15723;55.684;37.928;2022-10-18T02:20:40;100567.22;;;9.33;75.32
28510;BME280;15723;55.684;37.928;2022-10-18T02:23:08;100560.31;;;9.45;74.79
28510;BME280;15723;55.684;37.928;2022-10-18T02:25:35;100574.97;;;9.40;75.06
28510;BME280;15723;55.684;37.928;2022-10-18T02:28:04;100570.44;;;9.41;74.94
28510;BME280;15723;55.684;37.928;2022-10-18T02:30:36;100558.00;;;9.37;74.94
28510;BME280;15723;55.684;37.928;2022-10-18T02:33:17;100559.31;;;9.28;75.19
28510;BME280;15723;55.684;37.928;2022-10-18T02:35:50;100566.84;;;9.40;74.72
28510;BME280;15723;55.684;37.928;2022-10-18T02:38:18;100565.25;;;9.36;75.35
28510;BME280;15723;55.684;37.928;2022-10-18T02:40:45;100555.72;;;9.28;75.33
28510;BME280;15723;55.684;37.928;2022-10-18T02:43:13;100546.50;;;9.32;74.96
28510;BME280;15723;55.684;37.928;2022-10-18T02:45:39;100552.41;;;9.40;75.03
28510;BME280;15723;55.684;37.928;2022-10-18T02:48:06;100538.81;;;9.23;75.16
28510;BME280;15723;55.684;37.928;2022-10-18T02:50:32;100531.78;;;9.19;75.87
28510;BME280;15723;55.684;37.928;2022-10-18T02:52:59;100529.38;;;9.31;75.10
28510;BME280;15723;55.684;37.928;2022-10-18T02:55:25;100533.16;;;9.27;75.38
28510;BME280;15723;55.684;37.928;2022-10-18T02:57:52;100530.66;;;9.42;75.02
28510;BME280;15723;55.684;37.928;2022-10-18T03:00:18;100518.00;;;9.42;74.82
28510;BME280;15723;55.684;37.928;2022-10-18T03:02:47;100519.53;;;9.29;75.04
28510;BME280;15723;55.684;37.928;2022-10-18T03:05:14;100522.53;;;9.42;75.14
28510;BME280;15723;55.684;37.928;2022-10-18T03:07:40;100508.59;;;9.13;75.45
28510;BME280;15723;55.684;37.928;2022-10-18T03:10:07;100496.47;;;9.39;75.12
28510;BME280;15723;55.684;37.928;2022-10-18T03:12:33;100488.66;;;9.50;74.45
28510;BME280;15723;55.684;37.928;2022-10-18T03:14:59;100489.00;;;9.44;74.71
28510;BME280;15723;55.684;37.928;2022-10-18T03:17:26;100494.41;;;9.44;74.59
28510;BME280;15723;55.684;37.928;2022-10-18T03:19:52;100491.22;;;9.36;75.17
28510;BME280;15723;55.684;37.928;2022-10-18T03:22:19;100478.56;;;9.54;74.54
28510;BME280;15723;55.684;37.928;2022-10-18T03:24:45;100481.97;;;9.40;74.82
28510;BME280;15723;55.684;37.928;2022-10-18T03:27:11;100481.09;;;9.57;74.34
28510;BME280;15723;55.684;37.928;2022-10-18T03:29:38;100470.97;;;9.43;74.66
28510;BME280;15723;55.684;37.928;2022-10-18T03:32:06;100477.44;;;9.40;74.51
28510;BME280;15723;55.684;37.928;2022-10-18T03:34:32;100462.13;;;9.39;74.62
28510;BME280;15723;55.684;37.928;2022-10-18T03:36:59;100451.69;;;9.32;74.91
28510;BME280;15723;55.684;37.928;2022-10-18T03:39:25;100447.88;;;9.36;74.82
28510;BME280;15723;55.684;37.928;2022-10-18T03:41:52;100430.81;;;9.51;74.45
28510;BME280;15723;55.684;37.928;2022-10-18T03:44:18;100434.88;;;9.43;74.40
28510;BME280;15723;55.684;37.928;2022-10-18T03:46:44;100439.97;;;9.31;74.92
28510;BME280;15723;55.684;37.928;2022-10-18T03:49:10;100447.78;;;9.01;75.68
28510;BME280;15723;55.684;37.928;2022-10-18T03:51:37;100434.69;;;9.28;74.89
28510;BME280;15723;55.684;37.928;2022-10-18T03:54:03;100440.41;;;9.22;75.21
28510;BME280;15723;55.684;37.928;2022-10-18T03:56:30;100431.31;;;9.23;74.64
28510;BME280;15723;55.684;37.928;2022-10-18T03:58:56;100430.22;;;9.27;74.85
28510;BME280;15723;55.684;37.928;2022-10-18T04:01:22;100418.72;;;9.05;75.60
28510;BME280;15723;55.684;37.928;2022-10-18T04:03:49;100416.81;;;9.07;75.88
28510;BME280;15723;55.684;37.928;2022-10-18T04:06:15;100405.09;;;9.06;75.79
28510;BME280;15723;55.684;37.928;2022-10-18T04:08:41;100398.19;;;9.01;76.54
28510;BME280;15723;55.684;37.928;2022-10-18T04:11:08;100389.03;;;9.03;76.97
28510;BME280;15723;55.684;37.928;2022-10-18T04:13:36;100380.41;;;8.95;76.93
28510;BME280;15723;55.684;37.928;2022-10-18T04:16:02;100387.75;;;9.11;76.69
28510;BME280;15723;55.684;37.928;2022-10-18T04:18:28;100380.78;;;8.88;77.05
28510;BME280;15723;55.684;37.928;2022-10-18T04:20:55;100388.38;;;8.98;76.86
28510;BME280;15723;55.684;37.928;2022-10-18T04:23:21;100391.16;;;8.97;76.96
28510;BME280;15723;55.684;37.928;2022-10-18T04:25:47;100395.88;;;9.11;76.58
28510;BME280;15723;55.684;37.928;2022-10-18T04:28:14;100397.53;;;8.96;76.69
28510;BME280;15723;55.684;37.928;2022-10-18T04:30:40;100393.63;;;9.01;77.13
28510;BME280;15723;55.684;37.928;2022-10-18T04:33:07;100387.97;;;9.06;76.59
28510;BME280;15723;55.684;37.928;2022-10-18T04:35:33;100376.44;;;9.20;76.31
28510;BME280;15723;55.684;37.928;2022-10-18T04:37:59;100371.09;;;9.18;76.38
28510;BME280;15723;55.684;37.928;2022-10-18T04:40:26;100371.03;;;9.02;77.16
28510;BME280;15723;55.684;37.928;2022-10-18T04:42:52;100363.78;;;9.37;75.99
28510;BME280;15723;55.684;37.928;2022-10-18T04:45:19;100372.88;;;9.36;75.68
28510;BME280;15723;55.684;37.928;2022-10-18T04:47:45;100366.34;;;9.40;75.66
28510;BME280;15723;55.684;37.928;2022-10-18T04:50:11;100366.03;;;9.29;76.24
28510;BME280;15723;55.684;37.928;2022-10-18T04:52:38;100351.81;;;9.24;75.81
28510;BME280;15723;55.684;37.928;2022-10-18T04:55:05;100359.63;;;9.48;75.27
28510;BME280;15723;55.684;37.928;2022-10-18T04:57:31;100347.94;;;9.30;75.56
28510;BME280;15723;55.684;37.928;2022-10-18T04:59:57;100348.00;;;9.46;75.43
28510;BME280;15723;55.684;37.928;2022-10-18T05:02:24;100342.91;;;9.39;75.14
28510;BME280;15723;55.684;37.928;2022-10-18T05:04:50;100342.09;;;9.55;74.60
28510;BME280;15723;55.684;37.928;2022-10-18T05:07:16;100345.06;;;9.33;74.86
28510;BME280;15723;55.684;37.928;2022-10-18T05:09:43;100340.03;;;9.43;75.27
28510;BME280;15723;55.684;37.928;2022-10-18T05:12:10;100335.66;;;9.40;75.67
28510;BME280;15723;55.684;37.928;2022-10-18T05:14:36;100334.03;;;10.19;73.08
28510;BME280;15723;55.684;37.928;2022-10-18T05:17:02;100340.44;;;10.34;72.25
28510;BME280;15723;55.684;37.928;2022-10-18T05:19:28;100346.31;;;10.74;71.13
28510;BME280;15723;55.684;37.928;2022-10-18T05:21:54;100339.31;;;10.85;70.74
28510;BME280;15723;55.684;37.928;2022-10-18T05:24:21;100340.50;;;10.95;70.18
28510;BME280;15723;55.684;37.928;2022-10-18T05:26:47;100334.09;;;10.96;70.03
28510;BME280;15723;55.684;37.928;2022-10-18T05:29:13;100340.97;;;10.88;69.83
28510;BME280;15723;55.684;37.928;2022-10-18T05:31:39;100338.81;;;11.09;69.50
28510;BME280;15723;55.684;37.928;2022-10-18T05:34:05;100345.56;;;11.17;69.34
28510;BME280;15723;55.684;37.928;2022-10-18T05:36:31;100337.81;;;11.25;68.90
28510;BME280;15723;55.684;37.928;2022-10-18T05:38:57;100344.78;;;11.15;68.73
28510;BME280;15723;55.684;37.928;2022-10-18T05:41:24;100341.88;;;11.18;68.82
28510;BME280;15723;55.684;37.928;2022-10-18T05:43:50;100337.63;;;11.28;68.24
28510;BME280;15723;55.684;37.928;2022-10-18T05:46:16;100344.72;;;11.31;68.26
28510;BME280;15723;55.684;37.928;2022-10-18T05:48:43;100339.16;;;11.18;68.43
28510;BME280;15723;55.684;37.928;2022-10-18T05:51:09;100349.38;;;11.43;67.98
28510;BME280;15723;55.684;37.928;2022-10-18T05:53:35;100340.47;;;11.41;67.58
28510;BME280;15723;55.684;37.928;2022-10-18T05:56:02;100344.84;;;11.44;67.44
28510;BME280;15723;55.684;37.928;2022-10-18T05:58:28;100339.53;;;11.56;67.48
28510;BME280;15723;55.684;37.928;2022-10-18T06:00:57;100344.50;;;11.64;67.35
28510;BME280;15723;55.684;37.928;2022-10-18T06:03:24;100339.00;;;11.50;67.68
28510;BME280;15723;55.684;37.928;2022-10-18T06:05:50;100332.13;;;11.44;67.56
28510;BME280;15723;55.684;37.928;2022-10-18T06:08:16;100327.34;;;11.34;67.91
28510;BME280;15723;55.684;37.928;2022-10-18T06:10:42;100329.41;;;11.14;68.31
28510;BME280;15723;55.684;37.928;2022-10-18T06:13:08;100314.94;;;11.44;67.46
28510;BME280;15723;55.684;37.928;2022-10-18T06:15:34;100303.31;;;11.56;67.23
28510;BME280;15723;55.684;37.928;2022-10-18T06:18:00;100304.78;;;11.62;67.15
28510;BME280;15723;55.684;37.928;2022-10-18T06:20:26;100299.41;;;11.46;67.53
28510;BME280;15723;55.684;37.928;2022-10-18T06:22:52;100298.84;;;11.69;66.72
28510;BME280;15723;55.684;37.928;2022-10-18T06:25:18;100281.56;;;11.70;66.77
28510;BME280;15723;55.684;37.928;2022-10-18T06:27:45;100276.88;;;11.30;67.32
28510;BME280;15723;55.684;37.928;2022-10-18T06:30:11;100271.47;;;11.72;66.61
28510;BME280;15723;55.684;37.928;2022-10-18T06:32:37;100267.28;;;11.52;67.58
28510;BME280;15723;55.684;37.928;2022-10-18T06:35:04;100266.09;;;11.28;68.03
28510;BME280;15723;55.684;37.928;2022-10-18T06:37:30;100264.28;;;11.57;67.00
28510;BME280;15723;55.684;37.928;2022-10-18T06:39:56;100250.97;;;11.52;67.53
28510;BME280;15723;55.684;37.928;2022-10-18T06:42:22;100232.44;;;11.59;67.35
28510;BME280;15723;55.684;37.928;2022-10-18T06:44:49;100231.84;;;11.40;68.09
28510;BME280;15723;55.684;37.928;2022-10-18T06:47:15;100227.84;;;11.45;68.14
28510;BME280;15723;55.684;37.928;2022-10-18T06:49:41;100217.09;;;11.58;67.74
28510;BME280;15723;55.684;37.928;2022-10-18T06:52:07;100207.06;;;11.73;67.41
28510;BME280;15723;55.684;37.928;2022-10-18T06:54:33;100195.63;;;11.53;68.38
28510;BME280;15723;55.684;37.928;2022-10-18T06:56:59;100187.75;;;11.49;68.92
28510;BME280;15723;55.684;37.928;2022-10-18T06:59:27;100162.59;;;11.74;68.52
28510;BME280;15723;55.684;37.928;2022-10-18T07:01:54;100140.03;;;11.86;68.69
28510;BME280;15723;55.684;37.928;2022-10-18T07:04:20;100132.81;;;11.58;69.50
28510;BME280;15723;55.684;37.928;2022-10-18T07:06:46;100115.13;;;11.65;69.99
28510;BME280;15723;55.684;37.928;2022-10-18T07:09:12;100146.69;;;11.68;69.65
28510;BME280;15723;55.684;37.928;2022-10-18T07:11:39;100147.66;;;11.67;69.39
28510;BME280;15723;55.684;37.928;2022-10-18T07:14:05;100153.75;;;11.70;69.39
28510;BME280;15723;55.684;37.928;2022-10-18T07:16:32;100126.09;;;11.49;69.86
28510;BME280;15723;55.684;37.928;2022-10-18T07:18:59;100101.94;;;11.45;70.37
28510;BME280;15723;55.684;37.928;2022-10-18T07:21:25;100089.22;;;11.59;70.17
28510;BME280;15723;55.684;37.928;2022-10-18T07:23:52;100107.38;;;11.45;71.26
28510;BME280;15723;55.684;37.928;2022-10-18T07:26:24;100093.78;;;11.59;70.55
28510;BME280;15723;55.684;37.928;2022-10-18T07:28:54;100038.44;;;11.46;71.86
28510;BME280;15723;55.684;37.928;2022-10-18T07:31:23;100062.13;;;11.44;72.02
28510;BME280;15723;55.684;37.928;2022-10-18T07:33:50;100055.78;;;11.31;72.17
28510;BME280;15723;55.684;37.928;2022-10-18T07:36:17;100044.19;;;11.41;71.61
28510;BME280;15723;55.684;37.928;2022-10-18T07:38:43;100029.94;;;11.79;70.67
28510;BME280;15723;55.684;37.928;2022-10-18T07:41:11;100021.81;;;11.65;71.09
28510;BME280;15723;55.684;37.928;2022-10-18T07:43:41;100017.25;;;11.51;71.39
28510;BME280;15723;55.684;37.928;2022-10-18T07:46:08;99992.22;;;11.60;70.75
28510;BME280;15723;55.684;37.928;2022-10-18T07:48:34;99966.78;;;11.74;71.04
28510;BME280;15723;55.684;37.928;2022-10-18T07:51:01;99968.84;;;11.70;71.57
28510;BME280;15723;55.684;37.928;2022-10-18T07:53:28;99950.25;;;11.64;70.92
28510;BME280;15723;55.684;37.928;2022-10-18T07:55:58;99946.19;;;11.57;71.13
28510;BME280;15723;55.684;37.928;2022-10-18T07:58:26;99925.38;;;11.83;71.77
28510;BME280;15723;55.684;37.928;2022-10-18T08:00:52;99918.00;;;11.85;72.16
28510;BME280;15723;55.684;37.928;2022-10-18T08:03:19;99907.00;;;11.86;72.31
28510;BME280;15723;55.684;37.928;2022-10-18T08:05:54;99884.22;;;11.62;72.07
28510;BME280;15723;55.684;37.928;2022-10-18T08:08:21;99885.88;;;11.38;71.72
28510;BME280;15723;55.684;37.928;2022-10-18T08:10:48;99880.56;;;11.36;74.89
28510;BME280;15723;55.684;37.928;2022-10-18T08:13:15;99873.06;;;11.40;74.13
28510;BME280;15723;55.684;37.928;2022-10-18T08:15:42;99861.97;;;11.43;74.41
28510;BME280;15723;55.684;37.928;2022-10-18T08:18:08;99841.84;;;11.20;73.60
28510;BME280;15723;55.684;37.928;2022-10-18T08:20:35;99833.16;;;11.27;74.97
28510;BME280;15723;55.684;37.928;2022-10-18T08:23:03;99826.78;;;11.14;75.58
28510;BME280;15723;55.684;37.928;2022-10-18T08:25:30;99816.59;;;10.78;76.25
28510;BME280;15723;55.684;37.928;2022-10-18T08:27:56;99806.84;;;10.88;76.66
28510;BME280;15723;55.684;37.928;2022-10-18T08:30:22;99791.22;;;10.92;76.25
28510;BME280;15723;55.684;37.928;2022-10-18T08:32:48;99765.25;;;10.61;75.94
28510;BME280;15723;55.684;37.928;2022-10-18T08:35:14;99758.22;;;10.98;77.01
28510;BME280;15723;55.684;37.928;2022-10-18T08:37:40;99753.53;;;11.00;77.77
28510;BME280;15723;55.684;37.928;2022-10-18T08:40:09;99721.59;;;11.04;77.04
28510;BME280;15723;55.684;37.928;2022-10-18T08:45:30;99679.16;;;11.15;77.24
28510;BME280;15723;55.684;37.928;2022-10-18T08:48:00;99665.53;;;11.03;76.98
28510;BME280;15723;55.684;37.928;2022-10-18T08:50:30;99632.06;;;10.77;77.34
28510;BME280;15723;55.684;37.928;2022-10-18T08:56:14;99606.97;;;11.11;76.38
28510;BME280;15723;55.684;37.928;2022-10-18T08:58:46;99591.03;;;10.81;76.60
28510;BME280;15723;55.684;37.928;2022-10-18T09:01:32;99569.97;;;10.85;77.82
28510;BME280;15723;55.684;37.928;2022-10-18T09:04:17;99524.03;;;10.82;78.40
28510;BME280;15723;55.684;37.928;2022-10-18T09:21:04;99552.28;;;10.79;78.12
28510;BME280;15723;55.684;37.928;2022-10-18T09:26:22;99566.13;;;11.13;76.87
28510;BME280;15723;55.684;37.928;2022-10-18T09:36:31;99541.75;;;11.37;75.79
28510;BME280;15723;55.684;37.928;2022-10-18T09:39:10;99526.66;;;11.33;76.25
28510;BME280;15723;55.684;37.928;2022-10-18T09:41:50;99524.13;;;11.42;74.67
28510;BME280;15723;55.684;37.928;2022-10-18T09:44:25;99512.66;;;11.63;74.53
28510;BME280;15723;55.684;37.928;2022-10-18T09:47:00;99497.56;;;11.58;75.79
28510;BME280;15723;55.684;37.928;2022-10-18T09:49:33;99498.78;;;11.54;75.39
28510;BME280;15723;55.684;37.928;2022-10-18T09:52:07;99494.84;;;11.82;74.52
28510;BME280;15723;55.684;37.928;2022-10-18T09:54:38;99479.84;;;12.01;74.05
28510;BME280;15723;55.684;37.928;2022-10-18T09:57:34;99476.84;;;11.69;76.18
28510;BME280;15723;55.684;37.928;2022-10-18T10:00:04;99474.50;;;11.75;75.87
28510;BME280;15723;55.684;37.928;2022-10-18T10:02:31;99472.97;;;11.84;75.16
28510;BME280;15723;55.684;37.928;2022-10-18T10:04:57;99466.03;;;11.56;75.04
28510;BME280;15723;55.684;37.928;2022-10-18T10:07:27;99466.59;;;11.48;76.56
28510;BME280;15723;55.684;37.928;2022-10-18T10:10:09;99453.31;;;11.80;74.78
28510;BME280;15723;55.684;37.928;2022-10-18T10:12:39;99448.63;;;11.82;75.06
28510;BME280;15723;55.684;37.928;2022-10-18T10:15:29;99453.88;;;11.97;75.47
28510;BME280;15723;55.684;37.928;2022-10-18T10:18:20;99443.03;;;12.08;73.65
28510;BME280;15723;55.684;37.928;2022-10-18T10:20:51;99435.63;;;12.21;74.38
28510;BME280;15723;55.684;37.928;2022-10-18T10:25:58;99426.53;;;12.56;73.35
28510;BME280;15723;55.684;37.928;2022-10-18T10:28:32;99416.13;;;12.38;73.63
28510;BME280;15723;55.684;37.928;2022-10-18T10:36:31;99383.84;;;12.78;72.78
28510;BME280;15723;55.684;37.928;2022-10-18T10:39:12;99393.38;;;12.73;73.25
28510;BME280;15723;55.684;37.928;2022-10-18T10:41:46;99388.41;;;12.78;72.83
28510;BME280;15723;55.684;37.928;2022-10-18T10:44:15;99384.94;;;12.87;72.95
28510;BME280;15723;55.684;37.928;2022-10-18T10:46:42;99384.84;;;12.66;73.63
28510;BME280;15723;55.684;37.928;2022-10-18T10:51:42;99369.44;;;12.88;72.74
28510;BME280;15723;55.684;37.928;2022-10-18T10:54:15;99355.25;;;12.73;73.32
28510;BME280;15723;55.684;37.928;2022-10-18T10:57:04;99365.38;;;12.82;73.28
28510;BME280;15723;55.684;37.928;2022-10-18T11:04:46;99350.22;;;13.11;72.73
28510;BME280;15723;55.684;37.928;2022-10-18T11:09:58;99346.50;;;13.12;73.32
28510;BME280;15723;55.684;37.928;2022-10-18T11:12:47;99336.59;;;13.23;73.25
28510;BME280;15723;55.684;37.928;2022-10-18T11:15:23;99317.19;;;13.37;72.96
28510;BME280;15723;55.684;37.928;2022-10-18T11:18:15;99308.91;;;13.59;72.60
28510;BME280;15723;55.684;37.928;2022-10-18T11:20:47;99300.88;;;13.58;72.81
28510;BME280;15723;55.684;37.928;2022-10-18T11:23:17;99298.94;;;13.69;73.51
28510;BME280;15723;55.684;37.928;2022-10-18T11:39:32;99322.47;;;13.70;74.90
28510;BME280;15723;55.684;37.928;2022-10-18T11:44:48;99306.72;;;13.95;74.57
28510;BME280;15723;55.684;37.928;2022-10-18T11:47:41;99301.44;;;14.03;74.83
28510;BME280;15723;55.684;37.928;2022-10-18T11:53:44;99306.16;;;14.01;75.73
28510;BME280;15723;55.684;37.928;2022-10-18T11:59:09;99307.22;;;14.09;75.71
28510;BME280;15723;55.684;37.928;2022-10-18T12:04:48;99298.03;;;14.41;75.35
28510;BME280;15723;55.684;37.928;2022-10-18T12:07:17;99307.47;;;14.27;76.31
28510;BME280;15723;55.684;37.928;2022-10-18T12:09:48;99307.56;;;14.47;75.82
28510;BME280;15723;55.684;37.928;2022-10-18T12:12:28;99302.91;;;14.07;77.71
28510;BME280;15723;55.684;37.928;2022-10-18T12:15:17;99288.97;;;14.10;77.66
28510;BME280;15723;55.684;37.928;2022-10-18T12:17:49;99293.41;;;14.62;76.00
28510;BME280;15723;55.684;37.928;2022-10-18T12:20:26;99296.63;;;14.47;76.50
28510;BME280;15723;55.684;37.928;2022-10-18T12:25:39;99294.28;;;14.73;76.13
28510;BME280;15723;55.684;37.928;2022-10-18T12:31:02;99291.13;;;14.67;76.44
28510;BME280;15723;55.684;37.928;2022-10-18T12:33:37;99296.16;;;14.72;75.87
28510;BME280;15723;55.684;37.928;2022-10-18T12:38:59;99305.78;;;14.76;76.57
28510;BME280;15723;55.684;37.928;2022-10-18T12:41:30;99303.34;;;14.73;76.47
28510;BME280;15723;55.684;37.928;2022-10-18T12:44:29;99301.50;;;14.83;76.37
28510;BME280;15723;55.684;37.928;2022-10-18T12:47:02;99302.63;;;14.40;77.73
28510;BME280;15723;55.684;37.928;2022-10-18T12:49:33;99305.50;;;14.69;77.38
28510;BME280;15723;55.684;37.928;2022-10-18T12:52:04;99299.47;;;14.85;76.76
28510;BME280;15723;55.684;37.928;2022-10-18T12:54:36;99303.22;;;14.84;77.04
28510;BME280;15723;55.684;37.928;2022-10-18T12:57:05;99293.50;;;15.01;76.42
28510;BME280;15723;55.684;37.928;2022-10-18T12:59:42;99297.88;;;14.73;77.49
28510;BME280;15723;55.684;37.928;2022-10-18T13:02:20;99287.03;;;15.12;76.23
28510;BME280;15723;55.684;37.928;2022-10-18T13:04:47;99298.09;;;15.10;76.42
28510;BME280;15723;55.684;37.928;2022-10-18T13:09:40;99294.63;;;14.89;77.29
28510;BME280;15723;55.684;37.928;2022-10-18T13:14:58;99315.50;;;14.99;76.78
28510;BME280;15723;55.684;37.928;2022-10-18T13:17:52;99312.19;;;15.06;76.77
28510;BME280;15723;55.684;37.928;2022-10-18T13:23:06;99304.84;;;15.06;76.81
28510;BME280;15723;55.684;37.928;2022-10-18T13:28:21;99300.41;;;15.05;76.30
28510;BME280;15723;55.684;37.928;2022-10-18T13:31:01;99293.59;;;14.80;76.99
28510;BME280;15723;55.684;37.928;2022-10-18T13:33:36;99309.59;;;15.14;76.20
28510;BME280;15723;55.684;37.928;2022-10-18T13:44:28;99293.41;;;14.72;75.86
28510;BME280;15723;55.684;37.928;2022-10-18T14:06:05;99327.13;;;14.00;76.43
28510;BME280;15723;55.684;37.928;2022-10-18T14:14:03;99337.94;;;13.81;76.18
28510;BME280;15723;55.684;37.928;2022-10-18T14:16:37;99346.19;;;13.91;75.78
28510;BME280;15723;55.684;37.928;2022-10-18T14:21:57;99345.56;;;13.66;75.86
28510;BME280;15723;55.684;37.928;2022-10-18T14:24:25;99352.47;;;13.50;76.55
28510;BME280;15723;55.684;37.928;2022-10-18T14:27:09;99360.25;;;13.54;75.38
28510;BME280;15723;55.684;37.928;2022-10-18T14:29:38;99359.19;;;13.45;76.02
28510;BME280;15723;55.684;37.928;2022-10-18T14:32:09;99360.00;;;13.57;75.67
28510;BME280;15723;55.684;37.928;2022-10-18T14:34:36;99366.44;;;13.56;75.25
28510;BME280;15723;55.684;37.928;2022-10-18T14:37:03;99362.91;;;13.44;75.24
28510;BME280;15723;55.684;37.928;2022-10-18T14:39:29;99362.91;;;13.44;75.06
28510;BME280;15723;55.684;37.928;2022-10-18T14:41:57;99370.72;;;13.38;75.46
28510;BME280;15723;55.684;37.928;2022-10-18T14:44:29;99363.50;;;13.48;74.74
28510;BME280;15723;55.684;37.928;2022-10-18T14:47:02;99370.28;;;13.54;74.47
28510;BME280;15723;55.684;37.928;2022-10-18T14:49:29;99365.56;;;13.56;74.72
28510;BME280;15723;55.684;37.928;2022-10-18T14:51:58;99368.50;;;13.43;75.01
28510;BME280;15723;55.684;37.928;2022-10-18T14:54:29;99371.34;;;13.30;75.45
28510;BME280;15723;55.684;37.928;2022-10-18T14:56:58;99374.88;;;13.53;74.74
28510;BME280;15723;55.684;37.928;2022-10-18T14:59:31;99373.47;;;13.27;75.00
28510;BME280;15723;55.684;37.928;2022-10-18T15:02:10;99385.84;;;13.31;75.30
28510;BME280;15723;55.684;37.928;2022-10-18T15:04:37;99376.34;;;13.25;75.16
28510;BME280;15723;55.684;37.928;2022-10-18T15:07:06;99380.31;;;13.21;75.17
28510;BME280;15723;55.684;37.928;2022-10-18T15:09:38;99385.03;;;13.08;75.04
28510;BME280;15723;55.684;37.928;2022-10-18T15:12:05;99377.59;;;13.21;73.46
28510;BME280;15723;55.684;37.928;2022-10-18T15:14:33;99391.81;;;13.13;73.94
28510;BME280;15723;55.684;37.928;2022-10-18T15:17:03;99390.72;;;13.16;73.33
28510;BME280;15723;55.684;37.928;2022-10-18T15:19:35;99399.03;;;13.03;74.12
28510;BME280;15723;55.684;37.928;2022-10-18T15:22:06;99408.56;;;13.09;73.72
28510;BME280;15723;55.684;37.928;2022-10-18T15:24:38;99404.09;;;13.08;73.04
28510;BME280;15723;55.684;37.928;2022-10-18T15:27:24;99407.56;;;12.99;73.59
28510;BME280;15723;55.684;37.928;2022-10-18T15:29:51;99416.25;;;13.04;73.04
28510;BME280;15723;55.684;37.928;2022-10-18T15:32:24;99418.81;;;13.17;72.94
28510;BME280;15723;55.684;37.928;2022-10-18T15:34:53;99425.03;;;13.07;72.77
28510;BME280;15723;55.684;37.928;2022-10-18T15:37:38;99425.03;;;13.07;72.08